createdAt,value
2022-09-30T00:00:57.988Z,7.40
2022-09-30T00:02:59.711Z,7.07
2022-09-30T00:05:01.412Z,7.30
2022-09-30T00:07:03.012Z,6.77
2022-09-30T00:09:05.380Z,6.17
2022-09-30T00:11:11.359Z,6.73
2022-09-30T00:13:12.941Z,6.23
2022-09-30T00:15:14.975Z,6.23
2022-09-30T00:17:16.563Z,6.20
2022-09-30T00:19:18.356Z,6.30
2022-09-30T00:21:19.974Z,6.00
2022-09-30T00:23:23.223Z,6.90
2022-09-30T00:25:24.897Z,6.37
2022-09-30T00:27:26.529Z,6.60
2022-09-30T00:29:28.216Z,7.23
2022-09-30T00:31:32.748Z,7.30
2022-09-30T00:33:34.892Z,6.90
2022-09-30T00:35:37.913Z,7.17
2022-09-30T00:37:39.676Z,7.17
2022-09-30T00:39:41.544Z,6.73
2022-09-30T00:41:43.933Z,7.10
2022-09-30T00:43:53.594Z,6.40
2022-09-30T00:45:59.674Z,6.20
2022-09-30T00:48:09.166Z,6.43
2022-09-30T00:50:17.251Z,5.83
2022-09-30T00:52:19.690Z,6.30
2022-09-30T00:54:29.679Z,6.20
2022-09-30T00:56:37.188Z,6.70
2022-09-30T00:58:55.079Z,6.73
2022-09-30T01:01:00.086Z,5.90
2022-09-30T01:03:03.558Z,6.00
2022-09-30T01:05:05.821Z,6.00
2022-09-30T01:07:08.795Z,5.97
2022-09-30T01:09:10.963Z,5.63
2022-09-30T01:11:12.761Z,6.13
2022-09-30T01:13:18.004Z,6.07
2022-09-30T01:15:24.464Z,6.27
2022-09-30T01:17:37.123Z,6.17
2022-09-30T01:20:00.111Z,5.70
2022-09-30T01:22:33.860Z,6.17
2022-09-30T01:25:11.572Z,6.17
2022-09-30T01:27:46.953Z,5.47
2022-09-30T01:30:03.672Z,5.73
2022-09-30T01:32:23.763Z,5.80
2022-09-30T01:34:51.368Z,5.60
2022-09-30T01:37:13.940Z,4.80
2022-09-30T01:39:26.900Z,4.63
2022-09-30T01:41:53.142Z,4.70
2022-09-30T01:44:16.486Z,4.53
2022-09-30T01:46:20.991Z,4.23
2022-09-30T01:48:36.092Z,4.40
2022-09-30T01:50:55.743Z,4.43
2022-09-30T01:53:19.123Z,4.53
2022-09-30T01:55:43.272Z,4.70
2022-09-30T01:58:10.298Z,4.83
2022-09-30T02:00:13.530Z,4.53
2022-09-30T02:02:21.037Z,4.23
2022-09-30T02:04:32.060Z,4.37
2022-09-30T02:06:41.674Z,4.00
2022-09-30T02:09:06.232Z,4.00
2022-09-30T02:11:19.542Z,4.10
2022-09-30T02:13:33.126Z,3.73
2022-09-30T02:15:40.685Z,4.00
2022-09-30T02:17:48.140Z,3.63
2022-09-30T02:20:00.632Z,4.47
2022-09-30T02:22:15.228Z,3.80
2022-09-30T02:24:20.212Z,4.20
2022-09-30T02:26:29.820Z,3.50
2022-09-30T02:28:32.047Z,3.50
2022-09-30T02:30:36.561Z,3.93
2022-09-30T02:32:44.326Z,4.03
2022-09-30T02:34:51.233Z,3.13
2022-09-30T02:37:11.274Z,3.37
2022-09-30T02:39:54.108Z,3.47
2022-09-30T02:42:03.756Z,3.33
2022-09-30T02:44:05.848Z,3.57
2022-09-30T02:46:07.488Z,3.53
2022-09-30T02:48:21.541Z,3.63
2022-09-30T02:50:36.544Z,3.87
2022-09-30T02:52:48.216Z,3.63
2022-09-30T02:55:18.365Z,3.77
2022-09-30T02:57:31.181Z,4.07
2022-09-30T02:59:33.226Z,3.90
2022-09-30T03:01:35.001Z,3.87
2022-09-30T03:03:51.052Z,3.40
2022-09-30T03:05:53.239Z,3.40
2022-09-30T03:07:55.597Z,3.70
2022-09-30T03:09:59.132Z,3.30
2022-09-30T03:12:23.986Z,3.33
2022-09-30T03:14:47.169Z,2.93
2022-09-30T03:17:22.951Z,3.47
2022-09-30T03:19:52.464Z,2.90
2022-09-30T03:22:19.306Z,2.93
2022-09-30T03:24:51.310Z,2.97
2022-09-30T03:27:01.782Z,3.07
2022-09-30T03:29:28.191Z,3.20
2022-09-30T03:31:46.193Z,3.10
2022-09-30T03:34:02.660Z,2.93
2022-09-30T03:36:12.617Z,2.93
2022-09-30T03:38:50.166Z,2.90
2022-09-30T03:41:25.369Z,3.03
2022-09-30T03:43:46.443Z,3.67
2022-09-30T03:45:59.344Z,3.33
2022-09-30T03:48:07.271Z,3.37
2022-09-30T03:50:12.030Z,3.57
2022-09-30T03:52:15.173Z,3.27
2022-09-30T03:54:17.089Z,3.67
2022-09-30T03:56:28.845Z,3.33
2022-09-30T03:58:30.453Z,3.10
2022-09-30T04:00:33.011Z,2.90
2022-09-30T04:02:36.807Z,2.70
2022-09-30T04:04:39.950Z,2.60
2022-09-30T04:06:41.644Z,3.37
2022-09-30T04:08:44.447Z,3.00
2022-09-30T04:10:46.381Z,3.60
2022-09-30T04:12:48.024Z,3.30
2022-09-30T04:14:49.809Z,3.17
2022-09-30T04:16:53.941Z,3.30
2022-09-30T04:18:56.889Z,3.73
2022-09-30T04:20:59.211Z,3.10
2022-09-30T04:23:01.587Z,3.73
2022-09-30T04:25:03.313Z,3.60
2022-09-30T04:27:05.122Z,3.57
2022-09-30T04:29:06.682Z,3.70
2022-09-30T04:31:10.019Z,3.57
2022-09-30T04:33:12.867Z,4.00
2022-09-30T04:35:15.330Z,3.80
2022-09-30T04:37:17.036Z,3.80
2022-09-30T04:39:18.680Z,4.20
2022-09-30T04:41:21.017Z,4.07
2022-09-30T04:43:23.956Z,3.90
2022-09-30T04:45:25.674Z,3.73
2022-09-30T04:47:27.273Z,3.90
2022-09-30T04:49:28.984Z,4.00
2022-09-30T04:51:30.679Z,3.93
2022-09-30T04:53:32.515Z,3.80
2022-09-30T04:55:34.167Z,3.60
2022-09-30T04:57:36.078Z,3.63
2022-09-30T04:59:37.815Z,3.60
2022-09-30T05:01:40.406Z,3.93
2022-09-30T05:03:43.524Z,4.20
2022-09-30T05:05:45.836Z,3.90
2022-09-30T05:07:47.793Z,4.03
2022-09-30T05:09:49.406Z,3.77
2022-09-30T05:11:51.038Z,3.63
2022-09-30T05:13:52.650Z,4.00
2022-09-30T05:15:54.397Z,4.10
2022-09-30T05:17:56.237Z,3.70
2022-09-30T05:19:58.296Z,3.60
2022-09-30T05:21:59.926Z,3.20
2022-09-30T05:24:02.399Z,4.10
2022-09-30T05:26:08.487Z,4.00
2022-09-30T05:28:13.397Z,3.80
2022-09-30T05:30:14.981Z,3.70
2022-09-30T05:32:18.342Z,4.00
2022-09-30T05:34:21.398Z,4.07
2022-09-30T05:36:23.055Z,3.77
2022-09-30T05:38:24.706Z,3.70
2022-09-30T05:40:26.336Z,3.73
2022-09-30T05:42:27.902Z,3.70
2022-09-30T05:44:29.703Z,3.93
2022-09-30T05:46:31.350Z,3.80
2022-09-30T05:48:33.004Z,4.00
2022-09-30T05:50:34.868Z,3.63
2022-09-30T05:52:36.484Z,4.10
2022-09-30T05:54:38.079Z,3.70
2022-09-30T05:56:39.769Z,3.60
2022-09-30T05:58:42.239Z,3.53
2022-09-30T06:00:46.587Z,3.57
2022-09-30T06:02:52.027Z,3.57
2022-09-30T06:04:53.715Z,3.40
2022-09-30T06:06:55.315Z,3.47
2022-09-30T06:08:57.192Z,4.00
2022-09-30T06:10:59.716Z,3.57
2022-09-30T06:13:04.395Z,3.73
2022-09-30T06:15:06.967Z,3.67
2022-09-30T06:17:08.712Z,4.00
2022-09-30T06:19:10.324Z,3.70
2022-09-30T06:21:15.466Z,3.97
2022-09-30T06:23:17.036Z,4.00
2022-09-30T06:25:18.844Z,4.03
2022-09-30T06:27:20.460Z,3.80
2022-09-30T06:29:22.063Z,4.00
2022-09-30T06:31:23.944Z,4.20
2022-09-30T06:33:27.897Z,4.33
2022-09-30T06:35:29.558Z,4.67
2022-09-30T06:37:31.270Z,4.97
2022-09-30T06:39:32.910Z,4.73
2022-09-30T06:41:39.769Z,4.47
2022-09-30T06:43:46.801Z,4.30
2022-09-30T06:45:52.313Z,4.10
2022-09-30T06:48:02.035Z,4.40
2022-09-30T06:50:03.961Z,4.90
2022-09-30T06:52:05.660Z,4.97
2022-09-30T06:54:09.329Z,6.10
2022-09-30T06:56:10.949Z,5.60
2022-09-30T06:58:16.737Z,5.20
2022-09-30T07:00:18.567Z,5.67
2022-09-30T07:02:20.940Z,6.20
2022-09-30T07:04:23.059Z,6.67
2022-09-30T07:06:28.303Z,5.90
2022-09-30T07:08:32.131Z,6.57
2022-09-30T07:10:33.736Z,6.83
2022-09-30T07:12:35.273Z,6.47
2022-09-30T07:14:37.265Z,6.80
2022-09-30T07:16:39.467Z,6.73
2022-09-30T07:18:45.122Z,7.40
2022-09-30T07:20:54.552Z,7.00
2022-09-30T07:22:56.556Z,6.37
2022-09-30T07:24:59.964Z,7.47
2022-09-30T07:27:01.642Z,7.80
2022-09-30T07:29:03.377Z,8.17
2022-09-30T07:31:35.727Z,7.73
2022-09-30T07:33:38.862Z,7.53
2022-09-30T07:35:40.811Z,7.90
2022-09-30T07:37:42.419Z,8.87
2022-09-30T07:39:46.721Z,7.60
2022-09-30T07:41:48.309Z,7.37
2022-09-30T07:43:50.874Z,8.40
2022-09-30T07:45:53.544Z,7.60
2022-09-30T07:47:55.158Z,7.40
2022-09-30T07:49:56.748Z,7.07
2022-09-30T07:51:59.797Z,7.57
2022-09-30T07:54:06.022Z,8.23
2022-09-30T07:56:09.211Z,8.10
2022-09-30T07:58:11.123Z,7.77
2022-09-30T08:00:40.646Z,6.83
2022-09-30T08:02:34.749Z,6.97
2022-09-30T08:04:40.321Z,7.03
2022-09-30T08:06:51.183Z,7.37
2022-09-30T08:08:54.959Z,7.70
2022-09-30T08:11:00.357Z,7.50
2022-09-30T08:13:05.660Z,7.60
2022-09-30T08:15:09.806Z,7.57
2022-09-30T08:17:11.433Z,8.77
2022-09-30T08:19:16.722Z,8.37
2022-09-30T08:21:18.484Z,8.73
2022-09-30T08:23:21.194Z,8.37
2022-09-30T08:25:23.591Z,9.30
2022-09-30T08:27:25.264Z,8.73
2022-09-30T08:29:50.421Z,8.93
2022-09-30T08:31:50.048Z,8.57
2022-09-30T08:33:51.975Z,8.70
2022-09-30T08:35:53.560Z,9.40
2022-09-30T08:37:55.573Z,8.83
2022-09-30T08:39:57.188Z,8.67
2022-09-30T08:42:35.588Z,8.47
2022-09-30T08:44:47.849Z,9.50
2022-09-30T08:47:19.273Z,8.17
2022-09-30T08:49:45.421Z,8.10
2022-09-30T08:51:50.194Z,7.80
2022-09-30T08:53:53.675Z,8.20
2022-09-30T08:55:58.079Z,8.70
2022-09-30T08:58:02.890Z,8.33
2022-09-30T09:00:10.655Z,8.80
2022-09-30T09:02:27.838Z,9.83
2022-09-30T09:04:29.593Z,9.50
2022-09-30T09:06:37.010Z,9.00
2022-09-30T09:09:03.272Z,8.60
2022-09-30T09:11:31.817Z,9.73
2022-09-30T09:13:51.944Z,10.70
2022-09-30T09:16:19.164Z,9.37
2022-09-30T09:18:34.598Z,9.80
2022-09-30T09:20:42.568Z,11.07
2022-09-30T09:22:46.110Z,9.70
2022-09-30T09:24:51.091Z,11.67
2022-09-30T09:26:58.037Z,9.27
2022-09-30T09:29:20.714Z,11.63
2022-09-30T09:31:22.679Z,11.30
2022-09-30T09:33:35.276Z,11.43
2022-09-30T09:35:48.560Z,10.47
2022-09-30T09:38:17.733Z,10.80
2022-09-30T09:40:34.306Z,10.57
2022-09-30T09:42:58.645Z,12.00
2022-09-30T09:45:23.182Z,14.33
2022-09-30T09:47:24.837Z,13.30
2022-09-30T09:49:31.068Z,13.07
2022-09-30T09:51:39.561Z,12.67
2022-09-30T09:53:49.588Z,11.27
2022-09-30T09:55:55.363Z,12.23
2022-09-30T09:58:08.055Z,12.60
2022-09-30T10:00:42.286Z,13.43
2022-09-30T10:02:43.889Z,12.37
2022-09-30T10:04:51.154Z,12.43
2022-09-30T10:06:55.460Z,11.60
2022-09-30T10:08:57.091Z,10.87
2022-09-30T10:11:05.559Z,9.93
2022-09-30T10:13:27.759Z,10.00
2022-09-30T10:15:29.400Z,9.83
2022-09-30T10:17:37.229Z,9.30
2022-09-30T10:19:42.228Z,8.93
2022-09-30T10:21:43.843Z,8.83
2022-09-30T10:23:45.440Z,9.50
2022-09-30T10:26:24.358Z,9.07
2022-09-30T10:28:29.925Z,8.47
2022-09-30T10:30:49.469Z,8.70
2022-09-30T10:32:51.113Z,8.47
2022-09-30T10:35:20.334Z,9.67
2022-09-30T10:37:24.753Z,7.53
2022-09-30T10:39:31.424Z,8.83
2022-09-30T10:41:35.817Z,8.70
2022-09-30T10:43:47.928Z,8.67
2022-09-30T10:46:07.326Z,8.60
2022-09-30T10:48:19.507Z,8.07
2022-09-30T10:50:25.136Z,8.27
2022-09-30T10:52:29.568Z,7.97
2022-09-30T10:54:36.318Z,8.27
2022-09-30T10:56:52.287Z,7.87
2022-09-30T10:58:56.552Z,7.70
2022-09-30T11:03:24.859Z,7.57
2022-09-30T11:05:40.142Z,7.60
2022-09-30T11:07:41.663Z,7.37
2022-09-30T11:09:59.197Z,7.63
2022-09-30T11:12:11.705Z,8.30
2022-09-30T11:14:23.651Z,6.47
2022-09-30T11:17:08.554Z,6.37
2022-09-30T11:19:17.133Z,6.83
2022-09-30T11:21:26.248Z,5.80
2022-09-30T11:23:40.832Z,6.60
2022-09-30T11:25:57.808Z,6.40
2022-09-30T11:28:29.233Z,6.03
2022-09-30T11:30:44.725Z,5.97
2022-09-30T11:32:55.381Z,6.33
2022-09-30T11:35:31.996Z,6.57
2022-09-30T11:37:48.522Z,6.90
2022-09-30T11:40:24.018Z,6.20
2022-09-30T11:42:44.491Z,6.03
2022-09-30T11:44:46.904Z,5.97
2022-09-30T11:46:56.911Z,6.00
2022-09-30T11:49:22.573Z,5.60
2022-09-30T11:51:32.959Z,5.90
2022-09-30T11:54:18.530Z,6.07
2022-09-30T11:56:41.016Z,5.30
2022-09-30T11:58:57.681Z,6.23
2022-09-30T12:01:22.260Z,6.13
2022-09-30T12:03:46.489Z,5.97
2022-09-30T12:06:09.549Z,5.70
2022-09-30T12:08:33.076Z,4.93
2022-09-30T12:10:39.177Z,5.07
2022-09-30T12:12:41.379Z,5.20
2022-09-30T12:14:54.560Z,5.33
2022-09-30T12:16:58.445Z,5.50
2022-09-30T12:19:14.200Z,4.77
2022-09-30T12:21:26.530Z,4.50
2022-09-30T12:23:39.706Z,4.33
2022-09-30T12:25:46.200Z,4.63
2022-09-30T12:28:34.695Z,5.43
2022-09-30T12:33:22.972Z,5.23
2022-09-30T12:36:03.592Z,5.33
2022-09-30T12:38:24.446Z,5.10
2022-09-30T12:40:40.335Z,4.60
2022-09-30T12:43:11.825Z,4.97
2022-09-30T12:45:34.720Z,5.13
2022-09-30T12:47:55.425Z,4.90
2022-09-30T12:50:00.558Z,4.50
2022-09-30T12:52:11.456Z,4.33
2022-09-30T12:54:18.014Z,3.63
2022-09-30T12:56:19.809Z,3.57
2022-09-30T12:58:30.481Z,4.13
2022-09-30T13:00:34.978Z,4.37
2022-09-30T13:02:43.151Z,3.97
2022-09-30T13:04:45.979Z,3.77
2022-09-30T13:06:47.526Z,3.70
2022-09-30T13:09:06.073Z,3.87
2022-09-30T13:11:31.367Z,3.77
2022-09-30T13:13:37.022Z,4.10
2022-09-30T13:15:40.887Z,3.50
2022-09-30T13:17:43.066Z,3.70
2022-09-30T13:19:51.410Z,4.10
2022-09-30T13:22:13.023Z,3.60
2022-09-30T13:24:16.333Z,4.17
2022-09-30T13:26:24.353Z,4.20
2022-09-30T13:28:29.897Z,3.90
2022-09-30T13:30:34.500Z,3.30
2022-09-30T13:32:37.941Z,3.43
2022-09-30T13:34:55.402Z,3.20
2022-09-30T13:37:03.934Z,3.57
2022-09-30T13:39:34.645Z,3.50
2022-09-30T13:41:38.251Z,4.07
2022-09-30T13:44:02.562Z,3.30
2022-09-30T13:46:37.109Z,3.80
2022-09-30T13:48:45.144Z,3.60
2022-09-30T13:50:52.754Z,3.40
2022-09-30T13:53:02.686Z,3.50
2022-09-30T13:55:15.171Z,3.70
2022-09-30T13:57:27.260Z,3.90
2022-09-30T13:59:40.963Z,3.27
2022-09-30T14:01:53.698Z,3.70
2022-09-30T14:04:18.219Z,4.30
2022-09-30T14:06:30.097Z,4.37
2022-09-30T14:09:09.002Z,4.10
2022-09-30T14:11:25.636Z,3.80
2022-09-30T14:14:07.161Z,4.40
2022-09-30T14:16:26.996Z,4.60
2022-09-30T14:18:40.323Z,4.30
2022-09-30T14:21:03.757Z,4.17
2022-09-30T14:23:13.888Z,4.30
2022-09-30T14:25:19.074Z,3.70
2022-09-30T14:27:35.850Z,3.33
2022-09-30T14:30:03.151Z,4.47
2022-09-30T14:32:12.958Z,4.10
2022-09-30T14:34:18.481Z,3.83
2022-09-30T14:36:22.494Z,3.47
2022-09-30T14:38:28.350Z,3.37
2022-09-30T14:40:32.964Z,3.13
2022-09-30T14:42:41.267Z,3.00
2022-09-30T14:44:42.973Z,3.30
2022-09-30T14:46:47.212Z,3.40
2022-09-30T14:48:50.742Z,3.23
2022-09-30T14:51:05.117Z,3.10
2022-09-30T14:53:28.813Z,3.50
2022-09-30T14:55:35.848Z,3.07
2022-09-30T14:57:38.929Z,2.90
2022-09-30T14:59:43.818Z,3.10
2022-09-30T15:01:49.861Z,3.80
2022-09-30T15:04:05.268Z,3.07
2022-09-30T15:06:18.456Z,3.20
2022-09-30T15:08:22.023Z,3.07
2022-09-30T15:10:25.209Z,3.13
2022-09-30T15:12:26.984Z,3.17
2022-09-30T15:14:28.692Z,3.13
2022-09-30T15:16:31.924Z,3.07
2022-09-30T15:18:43.146Z,3.57
2022-09-30T15:20:44.946Z,3.23
2022-09-30T15:22:46.652Z,3.63
2022-09-30T15:24:49.733Z,3.67
2022-09-30T15:26:53.319Z,3.03
2022-09-30T15:28:55.120Z,3.83
2022-09-30T15:30:59.006Z,3.60
2022-09-30T15:33:02.723Z,3.73
2022-09-30T15:35:25.519Z,3.73
2022-09-30T15:37:33.732Z,3.93
2022-09-30T15:39:58.797Z,3.80
2022-09-30T15:42:00.760Z,4.27
2022-09-30T15:44:04.134Z,3.60
2022-09-30T15:46:27.558Z,3.23
2022-09-30T15:48:36.120Z,3.00
2022-09-30T15:50:50.661Z,3.00
2022-09-30T15:52:52.486Z,2.60
2022-09-30T15:54:55.421Z,3.33
2022-09-30T15:56:57.355Z,3.20
2022-09-30T15:59:03.868Z,2.70
2022-09-30T16:01:27.784Z,2.30
2022-09-30T16:03:31.110Z,5.50
2022-09-30T16:05:33.187Z,7.50
2022-09-30T16:07:35.088Z,7.67
2022-09-30T16:09:39.889Z,15.17
2022-09-30T16:11:44.480Z,8.83
2022-09-30T16:13:48.012Z,4.30
2022-09-30T16:15:51.127Z,3.63
2022-09-30T16:17:52.967Z,3.00
2022-09-30T16:19:59.476Z,3.27
2022-09-30T16:22:01.237Z,2.73
2022-09-30T16:24:02.921Z,2.77
2022-09-30T16:26:20.956Z,3.20
2022-09-30T16:28:22.729Z,2.90
2022-09-30T16:30:25.163Z,3.27
2022-09-30T16:32:28.402Z,2.73
2022-09-30T16:34:32.749Z,2.80
2022-09-30T16:36:34.786Z,2.77
2022-09-30T16:38:36.576Z,2.83
2022-09-30T16:40:39.252Z,2.80
2022-09-30T16:42:40.859Z,2.70
2022-09-30T16:44:44.597Z,3.20
2022-09-30T16:46:46.211Z,4.93
2022-09-30T16:48:47.803Z,4.90
2022-09-30T16:50:56.311Z,4.90
2022-09-30T16:52:57.924Z,4.87
2022-09-30T16:54:59.524Z,3.90
2022-09-30T16:57:01.274Z,4.33
2022-09-30T16:59:03.310Z,4.10
2022-09-30T17:01:05.273Z,3.80
2022-09-30T17:03:07.082Z,3.40
2022-09-30T17:05:14.200Z,4.10
2022-09-30T17:07:15.872Z,4.77
2022-09-30T17:09:17.598Z,4.77
2022-09-30T17:11:20.351Z,6.03
2022-09-30T17:13:21.931Z,11.50
2022-09-30T17:15:23.542Z,23.77
2022-09-30T17:17:25.133Z,29.57
2022-09-30T17:19:30.134Z,26.17
2022-09-30T17:21:31.789Z,14.80
2022-09-30T17:23:33.410Z,6.80
2022-09-30T17:25:41.130Z,5.00
2022-09-30T17:27:43.568Z,4.73
2022-09-30T17:29:45.281Z,5.53
2022-09-30T17:31:47.046Z,4.93
2022-09-30T17:33:48.714Z,4.67
2022-09-30T17:36:02.185Z,4.63
2022-09-30T17:38:11.611Z,4.17
2022-09-30T17:40:31.785Z,4.60
2022-09-30T17:42:55.553Z,5.20
2022-09-30T17:45:00.089Z,4.17
2022-09-30T17:47:02.076Z,3.90
2022-09-30T17:49:04.133Z,4.50
2022-09-30T17:51:06.120Z,5.27
2022-09-30T17:53:08.799Z,6.50
2022-09-30T17:55:10.507Z,7.00
2022-09-30T17:57:12.109Z,6.90
2022-09-30T17:59:13.690Z,6.73
2022-09-30T18:01:17.761Z,6.70
2022-09-30T18:03:19.457Z,7.70
2022-09-30T18:05:21.481Z,7.00
2022-09-30T18:07:23.871Z,9.37
2022-09-30T18:09:25.597Z,9.43
2022-09-30T18:11:31.176Z,9.60
2022-09-30T18:13:33.331Z,8.87
2022-09-30T18:15:35.180Z,14.50
2022-09-30T18:17:36.784Z,12.30
2022-09-30T18:19:38.545Z,7.27
2022-09-30T18:21:40.180Z,7.37
2022-09-30T18:23:41.764Z,7.33
2022-09-30T18:25:44.050Z,7.77
2022-09-30T18:27:59.199Z,7.03
2022-09-30T18:30:02.779Z,7.60
2022-09-30T18:32:05.731Z,7.67
2022-09-30T18:34:07.415Z,6.40
2022-09-30T18:36:09.052Z,6.50
2022-09-30T18:38:12.877Z,7.77
2022-09-30T18:40:17.387Z,8.10
2022-09-30T18:42:20.174Z,7.97
2022-09-30T18:44:21.816Z,7.93
2022-09-30T18:46:23.461Z,8.27
2022-09-30T18:48:26.210Z,8.07
2022-09-30T18:50:29.244Z,7.50
2022-09-30T18:52:30.849Z,9.00
2022-09-30T18:54:33.717Z,9.97
2022-09-30T18:56:35.343Z,8.70
2022-09-30T18:58:37.407Z,9.03
2022-09-30T19:00:38.998Z,8.90
2022-09-30T19:02:40.774Z,8.13
2022-09-30T19:04:46.036Z,8.60
2022-09-30T19:06:47.786Z,9.00
2022-09-30T19:08:50.142Z,9.20
2022-09-30T19:10:52.089Z,9.37
2022-09-30T19:12:53.718Z,10.33
2022-09-30T19:14:55.464Z,9.90
2022-09-30T19:16:57.039Z,10.17
2022-09-30T19:19:04.586Z,10.87
2022-09-30T19:21:12.312Z,11.07
2022-09-30T19:23:13.914Z,9.70
2022-09-30T19:25:16.085Z,9.63
2022-09-30T19:27:17.700Z,9.50
2022-09-30T19:29:19.297Z,9.07
2022-09-30T19:31:21.719Z,8.93
2022-09-30T19:33:26.228Z,8.80
2022-09-30T19:35:38.167Z,7.30
2022-09-30T19:37:54.009Z,6.83
2022-09-30T19:40:06.860Z,6.90
2022-09-30T19:42:14.490Z,7.70
2022-09-30T19:44:19.225Z,6.90
2022-09-30T19:46:21.663Z,7.43
2022-09-30T19:48:23.316Z,7.37
2022-09-30T19:50:25.040Z,8.17
2022-09-30T19:52:27.625Z,8.10
2022-09-30T19:54:38.432Z,8.93
2022-09-30T19:56:41.649Z,7.60
2022-09-30T19:58:46.607Z,8.20
2022-09-30T20:00:54.528Z,9.30
2022-09-30T20:02:57.635Z,10.00
2022-09-30T20:05:00.576Z,9.07
2022-09-30T20:07:02.297Z,8.80
2022-09-30T20:09:06.336Z,11.40
2022-09-30T20:11:10.798Z,13.90
2022-09-30T20:13:12.384Z,11.60
2022-09-30T20:15:32.624Z,9.57
2022-09-30T20:17:34.843Z,9.50
2022-09-30T20:19:36.490Z,8.77
2022-09-30T20:21:38.626Z,7.60
2022-09-30T20:23:42.591Z,8.20
2022-09-30T20:25:44.209Z,8.00
2022-09-30T20:27:51.987Z,7.87
2022-09-30T20:29:53.957Z,7.67
2022-09-30T20:31:55.865Z,7.90
2022-09-30T20:33:59.197Z,8.93
2022-09-30T20:36:01.560Z,9.00
2022-09-30T20:38:03.252Z,8.20
2022-09-30T20:40:05.391Z,10.23
2022-09-30T20:42:07.084Z,8.43
2022-09-30T20:44:15.555Z,9.07
2022-09-30T20:46:17.322Z,8.27
2022-09-30T20:48:19.141Z,8.47
2022-09-30T20:50:35.104Z,8.20
2022-09-30T20:52:36.972Z,7.83
2022-09-30T20:54:38.707Z,8.27
2022-09-30T20:57:05.907Z,8.67
2022-09-30T20:59:02.380Z,9.13
2022-09-30T21:01:10.442Z,11.10
2022-09-30T21:03:14.329Z,10.20
2022-09-30T21:05:16.065Z,9.40
2022-09-30T21:07:18.881Z,9.07
2022-09-30T21:09:20.459Z,9.57
2022-09-30T21:11:23.685Z,8.80
2022-09-30T21:13:25.265Z,8.73
2022-09-30T21:15:28.444Z,8.13
2022-09-30T21:17:31.090Z,8.07
2022-09-30T21:19:33.198Z,8.00
2022-09-30T21:21:35.289Z,7.13
2022-09-30T21:23:37.565Z,8.33
2022-09-30T21:25:39.156Z,7.67
2022-09-30T21:27:40.825Z,8.40
2022-09-30T21:29:43.736Z,7.23
2022-09-30T21:31:45.337Z,7.83
2022-09-30T21:33:56.388Z,7.20
2022-09-30T21:36:03.463Z,7.23
2022-09-30T21:38:05.062Z,8.20
2022-09-30T21:40:07.426Z,8.00
2022-09-30T21:42:09.103Z,7.47
2022-09-30T21:44:10.805Z,7.50
2022-09-30T21:46:14.854Z,8.33
2022-09-30T21:48:16.561Z,7.97
2022-09-30T21:50:18.163Z,8.30
2022-09-30T21:52:22.151Z,8.33
2022-09-30T21:54:24.439Z,7.70
2022-09-30T21:56:28.045Z,8.40
2022-09-30T21:58:32.077Z,8.53
2022-09-30T22:00:34.154Z,8.67
2022-09-30T22:02:36.393Z,7.60
2022-09-30T22:04:41.119Z,7.90
2022-09-30T22:06:42.721Z,7.70
2022-09-30T22:08:44.739Z,7.87
2022-09-30T22:10:46.504Z,8.37
2022-09-30T22:12:49.699Z,7.63
2022-09-30T22:14:51.280Z,7.77
2022-09-30T22:16:55.705Z,7.40
2022-09-30T22:19:01.517Z,7.63
2022-09-30T22:21:22.081Z,8.67
2022-09-30T22:23:23.728Z,7.80
2022-09-30T22:25:28.294Z,7.43
2022-09-30T22:27:31.826Z,7.73
2022-09-30T22:29:34.410Z,7.10
2022-09-30T22:31:36.369Z,6.97
2022-09-30T22:33:56.803Z,6.90
2022-09-30T22:36:17.019Z,6.83
2022-09-30T22:38:18.632Z,6.73
2022-09-30T22:40:20.217Z,6.97
2022-09-30T22:42:21.843Z,6.77
2022-09-30T22:44:26.014Z,6.57
2022-09-30T22:46:29.376Z,6.87
2022-09-30T22:48:31.881Z,6.90
2022-09-30T22:50:35.684Z,6.80
2022-09-30T22:52:37.243Z,7.67
2022-09-30T22:54:38.852Z,7.00
2022-09-30T22:56:40.558Z,7.40
2022-09-30T22:58:42.128Z,7.03
2022-09-30T23:00:58.582Z,8.00
2022-09-30T23:03:00.339Z,7.73
2022-09-30T23:05:02.278Z,7.07
2022-09-30T23:07:08.210Z,7.13
2022-09-30T23:09:09.972Z,7.57
2022-09-30T23:11:16.883Z,7.27
2022-09-30T23:13:20.233Z,7.23
2022-09-30T23:15:22.569Z,7.60
2022-09-30T23:17:24.153Z,7.43
2022-09-30T23:19:25.823Z,7.63
2022-09-30T23:21:27.542Z,7.77
2022-09-30T23:23:31.424Z,6.87
2022-09-30T23:25:33.110Z,7.07
2022-09-30T23:27:34.830Z,6.80
2022-09-30T23:29:36.425Z,6.83
2022-09-30T23:31:38.807Z,6.73
2022-09-30T23:33:49.642Z,7.47
2022-09-30T23:35:51.236Z,6.77
2022-09-30T23:37:52.914Z,6.73
2022-09-30T23:39:54.529Z,6.80
2022-09-30T23:41:57.143Z,6.83
2022-09-30T23:43:58.871Z,6.63
2022-09-30T23:46:01.705Z,7.27
2022-09-30T23:48:03.794Z,7.13
2022-09-30T23:50:05.835Z,6.57
2022-09-30T23:52:12.693Z,6.93
2022-09-30T23:54:14.806Z,6.57
2022-09-30T23:56:18.149Z,6.27
2022-09-30T23:58:19.862Z,6.67
